createdAt,value
2018-08-16T00:00:58.567Z,8.00
2018-08-16T00:03:25.860Z,7.90
2018-08-16T00:05:53.227Z,8.03
2018-08-16T00:08:20.584Z,6.60
2018-08-16T00:10:47.943Z,7.40
2018-08-16T00:13:15.251Z,6.70
2018-08-16T00:15:42.543Z,6.43
2018-08-16T00:18:09.954Z,7.57
2018-08-16T00:20:37.848Z,7.10
2018-08-16T00:23:05.142Z,7.00
2018-08-16T00:25:32.407Z,7.10
2018-08-16T00:28:00.160Z,6.93
2018-08-16T00:30:27.460Z,7.50
2018-08-16T00:32:58.947Z,6.70
2018-08-16T00:35:27.072Z,7.77
2018-08-16T00:37:54.404Z,8.70
2018-08-16T00:40:21.699Z,9.97
2018-08-16T00:42:48.995Z,8.37
2018-08-16T00:45:16.334Z,7.87
2018-08-16T00:47:43.662Z,9.20
2018-08-16T00:50:16.502Z,7.27
2018-08-16T00:52:43.815Z,7.80
2018-08-16T00:55:12.327Z,9.30
2018-08-16T00:57:39.634Z,7.83
2018-08-16T01:00:09.675Z,8.90
2018-08-16T01:02:37.003Z,8.70
2018-08-16T01:05:04.458Z,10.37
2018-08-16T01:07:31.777Z,9.20
2018-08-16T01:09:59.055Z,9.07
2018-08-16T01:12:26.763Z,12.33
2018-08-16T01:14:54.157Z,9.00
2018-08-16T01:17:21.522Z,10.20
2018-08-16T01:19:48.827Z,10.03
2018-08-16T01:22:16.147Z,8.63
2018-08-16T01:24:43.446Z,11.03
2018-08-16T01:27:11.356Z,9.73
2018-08-16T01:29:38.658Z,9.63
2018-08-16T01:32:05.941Z,10.23
2018-08-16T01:34:33.199Z,8.73
2018-08-16T01:37:00.479Z,9.47
2018-08-16T01:39:27.727Z,8.37
2018-08-16T01:41:55.035Z,7.97
2018-08-16T01:44:22.348Z,8.77
2018-08-16T01:46:49.619Z,9.07
2018-08-16T01:49:26.956Z,8.90
2018-08-16T01:51:54.791Z,8.67
2018-08-16T01:54:22.703Z,8.90
2018-08-16T01:56:50.391Z,8.83
2018-08-16T01:59:17.856Z,13.03
2018-08-16T02:01:46.008Z,8.67
2018-08-16T02:04:13.493Z,8.73
2018-08-16T02:06:40.994Z,9.33
2018-08-16T02:09:09.043Z,8.57
2018-08-16T02:11:36.883Z,8.87
2018-08-16T02:14:04.390Z,8.70
2018-08-16T02:16:31.867Z,8.47
2018-08-16T02:18:59.489Z,8.30
2018-08-16T02:21:27.019Z,9.03
2018-08-16T02:23:54.568Z,8.67
2018-08-16T02:26:22.132Z,8.30
2018-08-16T02:28:49.826Z,8.43
2018-08-16T02:31:17.340Z,8.70
2018-08-16T02:33:44.893Z,7.90
2018-08-16T02:36:12.389Z,8.50
2018-08-16T02:38:39.924Z,9.20
2018-08-16T02:41:07.612Z,9.97
2018-08-16T02:43:35.095Z,8.20
2018-08-16T02:46:02.616Z,9.70
2018-08-16T02:48:30.078Z,9.90
2018-08-16T02:50:57.678Z,9.10
2018-08-16T02:53:25.073Z,8.90
2018-08-16T02:55:52.599Z,8.70
2018-08-16T02:58:20.079Z,8.30
2018-08-16T03:00:47.547Z,8.63
2018-08-16T03:03:15.055Z,7.97
2018-08-16T03:05:42.552Z,8.83
2018-08-16T03:08:10.040Z,8.50
2018-08-16T03:10:37.496Z,8.90
2018-08-16T03:13:05.032Z,8.30
2018-08-16T03:15:32.689Z,8.13
2018-08-16T03:18:00.211Z,9.00
2018-08-16T03:20:27.663Z,8.00
2018-08-16T03:22:55.161Z,8.73
2018-08-16T03:25:22.649Z,11.00
2018-08-16T03:27:50.228Z,9.00
2018-08-16T03:30:17.776Z,8.23
2018-08-16T03:32:45.240Z,9.57
2018-08-16T03:35:12.728Z,8.50
2018-08-16T03:37:40.343Z,8.83
2018-08-16T03:40:07.928Z,8.80
2018-08-16T03:42:35.487Z,9.23
2018-08-16T03:45:02.992Z,9.00
2018-08-16T03:47:30.582Z,7.90
2018-08-16T03:49:58.041Z,9.37
2018-08-16T03:52:25.616Z,11.70
2018-08-16T03:54:53.096Z,9.50
2018-08-16T03:57:20.540Z,11.60
2018-08-16T03:59:48.073Z,9.00
2018-08-16T04:02:16.595Z,10.20
2018-08-16T04:04:44.076Z,9.17
2018-08-16T04:07:11.563Z,8.53
2018-08-16T04:09:39.036Z,9.77
2018-08-16T04:12:06.542Z,9.03
2018-08-16T04:14:34.027Z,9.17
2018-08-16T04:17:01.587Z,9.83
2018-08-16T04:19:29.069Z,11.97
2018-08-16T04:21:56.560Z,10.20
2018-08-16T04:24:24.080Z,11.03
2018-08-16T04:26:51.528Z,10.77
2018-08-16T04:29:19.710Z,9.97
2018-08-16T04:31:47.294Z,9.90
2018-08-16T04:34:14.737Z,9.83
2018-08-16T04:36:42.260Z,12.83
2018-08-16T04:39:10.251Z,9.90
2018-08-16T04:41:38.244Z,11.73
2018-08-16T04:44:06.738Z,12.27
2018-08-16T04:46:34.207Z,11.43
2018-08-16T04:49:01.789Z,11.10
2018-08-16T04:51:29.299Z,12.17
2018-08-16T04:53:56.815Z,12.83
2018-08-16T04:56:24.367Z,16.30
2018-08-16T04:58:51.862Z,12.07
2018-08-16T05:01:19.387Z,12.13
2018-08-16T05:03:46.848Z,12.20
2018-08-16T05:06:14.341Z,12.50
2018-08-16T05:08:41.913Z,12.30
2018-08-16T05:11:09.520Z,11.97
2018-08-16T05:13:36.956Z,13.70
2018-08-16T05:16:04.435Z,15.30
2018-08-16T05:18:31.937Z,12.80
2018-08-16T05:20:59.432Z,13.27
2018-08-16T05:23:26.955Z,12.77
2018-08-16T05:25:54.531Z,19.20
2018-08-16T05:28:22.044Z,23.97
2018-08-16T05:30:49.540Z,22.70
2018-08-16T05:33:17.082Z,17.17
2018-08-16T05:35:44.563Z,15.80
2018-08-16T05:38:12.675Z,14.70
2018-08-16T05:40:40.320Z,17.20
2018-08-16T05:43:07.925Z,19.17
2018-08-16T05:45:35.390Z,16.90
2018-08-16T05:48:02.953Z,16.00
2018-08-16T05:50:30.439Z,15.93
2018-08-16T05:52:57.940Z,15.57
2018-08-16T05:55:25.509Z,16.53
2018-08-16T05:57:53.188Z,15.30
2018-08-16T06:00:21.506Z,16.87
2018-08-16T06:02:49.013Z,13.57
2018-08-16T06:05:16.596Z,16.83
2018-08-16T06:07:44.138Z,18.00
2018-08-16T06:10:11.663Z,14.67
2018-08-16T06:12:39.183Z,19.23
2018-08-16T06:15:07.611Z,17.50
2018-08-16T06:17:35.823Z,17.10
2018-08-16T06:20:05.840Z,18.63
2018-08-16T06:22:33.309Z,16.10
2018-08-16T06:25:00.789Z,18.23
2018-08-16T06:27:44.540Z,16.37
2018-08-16T06:30:13.900Z,18.40
2018-08-16T06:32:41.308Z,15.37
2018-08-16T06:35:08.708Z,15.40
2018-08-16T06:37:36.064Z,16.43
2018-08-16T06:40:04.728Z,13.03
2018-08-16T06:42:32.080Z,17.37
2018-08-16T06:44:59.319Z,15.83
2018-08-16T06:47:26.624Z,16.00
2018-08-16T06:49:53.879Z,15.17
2018-08-16T06:52:21.179Z,14.40
2018-08-16T06:54:48.447Z,13.37
2018-08-16T06:57:15.847Z,13.80
2018-08-16T06:59:43.570Z,14.93
2018-08-16T07:02:10.841Z,15.97
2018-08-16T07:04:38.192Z,15.30
2018-08-16T07:07:05.494Z,16.57
2018-08-16T07:09:32.767Z,13.77
2018-08-16T07:12:00.108Z,13.30
2018-08-16T07:14:27.399Z,14.13
2018-08-16T07:16:54.672Z,12.60
2018-08-16T07:19:22.017Z,12.10
2018-08-16T07:21:49.279Z,12.90
2018-08-16T07:24:16.660Z,11.43
2018-08-16T07:26:44.179Z,11.33
2018-08-16T07:29:12.591Z,10.87
2018-08-16T07:31:40.072Z,12.37
2018-08-16T07:34:07.616Z,11.20
2018-08-16T07:36:35.139Z,10.67
2018-08-16T07:39:03.048Z,9.47
2018-08-16T07:41:30.508Z,9.43
2018-08-16T07:43:57.982Z,8.27
2018-08-16T07:46:25.490Z,9.67
2018-08-16T07:48:52.988Z,8.47
2018-08-16T07:51:20.729Z,8.33
2018-08-16T07:53:47.947Z,8.83
2018-08-16T07:56:15.440Z,7.90
2018-08-16T07:58:42.960Z,7.43
2018-08-16T08:01:10.456Z,8.70
2018-08-16T08:03:38.065Z,8.20
2018-08-16T08:06:05.543Z,6.60
2018-08-16T08:08:32.987Z,8.07
2018-08-16T08:11:00.484Z,9.40
2018-08-16T08:13:27.952Z,6.93
2018-08-16T08:15:55.497Z,7.97
2018-08-16T08:18:23.025Z,8.57
2018-08-16T08:20:50.486Z,7.43
2018-08-16T08:23:18.011Z,10.60
2018-08-16T08:25:45.504Z,6.87
2018-08-16T08:28:12.947Z,11.83
2018-08-16T08:30:40.452Z,7.03
2018-08-16T08:33:07.941Z,8.07
2018-08-16T08:35:35.428Z,7.03
2018-08-16T08:38:09.740Z,7.93
2018-08-16T08:40:37.032Z,7.20
2018-08-16T08:43:04.596Z,7.73
2018-08-16T08:45:31.864Z,7.70
2018-08-16T08:47:59.160Z,8.20
2018-08-16T08:50:26.628Z,8.83
2018-08-16T08:53:04.139Z,8.80
2018-08-16T08:55:42.997Z,9.90
2018-08-16T08:58:21.773Z,8.13
2018-08-16T09:00:49.092Z,9.00
2018-08-16T09:03:16.396Z,8.60
2018-08-16T09:05:43.671Z,7.90
2018-08-16T09:08:10.947Z,8.10
2018-08-16T09:10:50.643Z,8.80
2018-08-16T09:13:29.967Z,8.93
2018-08-16T09:15:58.380Z,9.10
2018-08-16T09:18:25.968Z,10.27
2018-08-16T09:20:53.505Z,8.80
2018-08-16T09:23:21.524Z,8.33
2018-08-16T09:25:49.052Z,9.13
2018-08-16T09:28:16.531Z,8.30
2018-08-16T09:30:55.534Z,8.03
2018-08-16T09:33:34.505Z,7.70
2018-08-16T09:36:01.967Z,7.90
2018-08-16T09:38:29.428Z,8.20
2018-08-16T09:40:56.879Z,8.83
2018-08-16T09:43:24.360Z,7.40
2018-08-16T09:47:08.566Z,8.53
2018-08-16T09:49:39.511Z,8.30
2018-08-16T09:52:07.472Z,6.97
2018-08-16T09:54:34.791Z,7.33
2018-08-16T09:57:03.236Z,11.73
2018-08-16T09:59:30.721Z,12.73
2018-08-16T10:01:58.205Z,8.67
2018-08-16T10:04:26.055Z,9.60
2018-08-16T10:06:53.554Z,8.57
2018-08-16T10:09:23.056Z,9.00
2018-08-16T10:11:50.708Z,9.67
2018-08-16T10:14:18.607Z,7.47
2018-08-16T10:16:46.098Z,7.70
2018-08-16T10:19:13.540Z,8.33
2018-08-16T10:21:41.126Z,8.87
2018-08-16T10:24:08.632Z,7.97
2018-08-16T10:26:36.207Z,8.90
2018-08-16T10:29:04.096Z,11.63
2018-08-16T10:31:31.615Z,8.80
2018-08-16T10:33:59.104Z,6.80
2018-08-16T10:36:26.952Z,7.90
2018-08-16T10:38:55.363Z,8.20
2018-08-16T10:41:22.954Z,7.20
2018-08-16T10:43:50.480Z,6.53
2018-08-16T10:46:18.004Z,6.40
2018-08-16T10:48:45.472Z,6.43
2018-08-16T10:51:13.483Z,7.60
2018-08-16T10:53:42.020Z,7.30
2018-08-16T10:56:09.556Z,6.90
2018-08-16T10:58:37.084Z,7.53
2018-08-16T11:01:04.624Z,6.37
2018-08-16T11:03:32.128Z,8.50
2018-08-16T11:05:59.615Z,8.10
2018-08-16T11:08:27.147Z,7.77
2018-08-16T11:10:54.660Z,7.67
2018-08-16T11:13:22.248Z,7.93
2018-08-16T11:15:49.824Z,7.73
2018-08-16T11:18:17.318Z,6.87
2018-08-16T11:20:44.897Z,7.93
2018-08-16T11:23:12.372Z,6.90
2018-08-16T11:25:39.948Z,7.00
2018-08-16T11:28:07.892Z,9.87
2018-08-16T11:30:35.463Z,6.40
2018-08-16T11:33:02.955Z,6.33
2018-08-16T11:35:30.414Z,6.73
2018-08-16T11:37:58.003Z,8.73
2018-08-16T11:40:25.399Z,9.40
2018-08-16T11:42:52.937Z,6.97
2018-08-16T11:45:20.440Z,6.03
2018-08-16T11:47:47.895Z,6.50
2018-08-16T11:50:15.367Z,6.23
2018-08-16T11:52:42.863Z,5.77
2018-08-16T11:55:10.419Z,5.63
2018-08-16T11:57:37.919Z,6.17
2018-08-16T12:00:05.630Z,6.30
2018-08-16T12:02:33.095Z,6.07
2018-08-16T12:05:00.576Z,7.83
2018-08-16T12:07:29.228Z,6.37
2018-08-16T12:09:56.700Z,6.33
2018-08-16T12:12:24.294Z,7.20
2018-08-16T12:14:51.802Z,7.03
2018-08-16T12:17:19.313Z,6.43
2018-08-16T12:19:51.143Z,6.50
2018-08-16T12:22:18.648Z,6.70
2018-08-16T12:24:46.151Z,7.33
2018-08-16T12:27:13.592Z,6.87
2018-08-16T12:29:41.068Z,7.10
2018-08-16T12:32:08.555Z,6.70
2018-08-16T12:34:36.008Z,7.00
2018-08-16T12:37:04.843Z,6.77
2018-08-16T12:39:32.332Z,7.30
2018-08-16T12:41:59.808Z,9.47
2018-08-16T12:44:27.359Z,5.73
2018-08-16T12:46:54.860Z,5.80
2018-08-16T12:49:22.437Z,6.73
2018-08-16T12:51:53.592Z,6.73
2018-08-16T12:54:21.074Z,6.47
2018-08-16T12:56:48.463Z,6.70
2018-08-16T12:59:15.968Z,7.20
2018-08-16T13:01:44.307Z,6.10
2018-08-16T13:04:11.728Z,6.47
2018-08-16T13:06:43.585Z,6.60
2018-08-16T13:09:11.040Z,8.20
2018-08-16T13:11:39.126Z,6.27
2018-08-16T13:14:06.856Z,6.23
2018-08-16T13:16:34.788Z,6.53
2018-08-16T13:19:02.475Z,6.17
2018-08-16T13:21:33.044Z,7.13
2018-08-16T13:24:00.953Z,6.27
2018-08-16T13:26:28.303Z,6.27
2018-08-16T13:28:55.637Z,5.43
2018-08-16T13:31:23.052Z,7.20
2018-08-16T13:33:55.171Z,6.60
2018-08-16T13:36:22.470Z,6.77
2018-08-16T13:38:49.763Z,6.97
2018-08-16T13:41:17.067Z,7.63
2018-08-16T13:43:44.361Z,6.80
2018-08-16T13:46:11.668Z,7.20
2018-08-16T13:48:39.100Z,6.30
2018-08-16T13:51:08.939Z,6.00
2018-08-16T13:53:36.239Z,6.83
2018-08-16T13:56:03.549Z,7.13
2018-08-16T13:58:30.880Z,6.60
2018-08-16T14:00:58.209Z,6.77
2018-08-16T14:03:28.626Z,6.93
2018-08-16T14:05:57.308Z,10.07
2018-08-16T14:08:24.690Z,6.60
2018-08-16T14:10:51.985Z,6.80
2018-08-16T14:13:20.530Z,6.37
2018-08-16T14:15:47.836Z,6.60
2018-08-16T14:18:19.508Z,7.17
2018-08-16T14:20:46.806Z,8.27
2018-08-16T14:23:14.140Z,11.03
2018-08-16T14:25:41.426Z,7.10
2018-08-16T14:28:08.782Z,7.10
2018-08-16T14:30:36.256Z,6.57
2018-08-16T14:33:07.783Z,8.87
2018-08-16T14:35:35.020Z,7.83
2018-08-16T14:38:03.009Z,7.83
2018-08-16T14:40:30.295Z,6.73
2018-08-16T14:42:57.576Z,8.40
2018-08-16T14:45:25.007Z,6.63
2018-08-16T14:48:02.528Z,6.43
2018-08-16T14:50:33.070Z,7.43
2018-08-16T14:53:00.340Z,13.23
2018-08-16T14:55:27.654Z,7.30
2018-08-16T14:57:56.480Z,6.67
2018-08-16T15:00:26.600Z,7.77
2018-08-16T15:02:53.923Z,6.43
2018-08-16T15:05:21.215Z,7.10
2018-08-16T15:07:48.487Z,7.33
2018-08-16T15:10:15.804Z,8.83
2018-08-16T15:12:43.515Z,6.70
2018-08-16T15:15:14.664Z,8.27
2018-08-16T15:17:41.980Z,6.80
2018-08-16T15:20:09.284Z,9.00
2018-08-16T15:22:36.600Z,7.57
2018-08-16T15:25:04.691Z,6.93
2018-08-16T15:27:31.975Z,6.87
2018-08-16T15:30:03.900Z,8.90
2018-08-16T15:32:31.164Z,7.63
2018-08-16T15:34:58.447Z,7.90
2018-08-16T15:37:25.763Z,8.70
2018-08-16T15:39:53.120Z,9.50
2018-08-16T15:42:26.063Z,10.23
2018-08-16T15:44:53.438Z,8.13
2018-08-16T15:47:20.757Z,8.67
2018-08-16T15:49:48.069Z,8.70
2018-08-16T15:52:15.364Z,8.37
2018-08-16T15:54:42.643Z,8.40
2018-08-16T15:57:14.168Z,7.77
2018-08-16T15:59:41.427Z,8.20
2018-08-16T16:02:08.763Z,7.93
2018-08-16T16:04:36.191Z,10.23
2018-08-16T16:07:03.684Z,9.13
2018-08-16T16:09:32.109Z,9.60
2018-08-16T16:12:01.111Z,8.60
2018-08-16T16:14:28.407Z,8.43
2018-08-16T16:16:55.715Z,8.27
2018-08-16T16:19:23.032Z,9.10
2018-08-16T16:21:50.314Z,9.47
2018-08-16T16:24:17.588Z,10.17
2018-08-16T16:26:44.892Z,8.20
2018-08-16T16:29:16.830Z,9.90
2018-08-16T16:31:44.111Z,8.37
2018-08-16T16:34:11.376Z,9.80
2018-08-16T16:36:39.631Z,9.40
2018-08-16T16:39:08.630Z,8.70
2018-08-16T16:41:35.917Z,8.43
2018-08-16T16:44:05.117Z,12.13
2018-08-16T16:46:32.389Z,10.00
2018-08-16T16:48:59.826Z,8.67
2018-08-16T16:51:27.109Z,10.30
2018-08-16T16:53:54.467Z,11.10
2018-08-16T16:56:21.817Z,10.03
2018-08-16T16:58:53.064Z,9.33
2018-08-16T17:01:20.480Z,10.03
2018-08-16T17:03:47.853Z,11.33
2018-08-16T17:06:15.161Z,9.53
2018-08-16T17:08:42.439Z,10.37
2018-08-16T17:11:09.719Z,8.33
2018-08-16T17:13:37.028Z,10.40
2018-08-16T17:16:04.476Z,9.60
2018-08-16T17:18:32.462Z,9.20
2018-08-16T17:20:59.783Z,9.57
2018-08-16T17:23:31.620Z,11.83
2018-08-16T17:25:58.905Z,11.13
2018-08-16T17:28:26.200Z,9.90
2018-08-16T17:30:53.531Z,9.93
2018-08-16T17:33:20.845Z,9.90
2018-08-16T17:35:48.148Z,10.20
2018-08-16T17:38:15.437Z,9.80
2018-08-16T17:40:42.714Z,9.57
2018-08-16T17:43:10.003Z,9.80
2018-08-16T17:45:37.276Z,10.63
2018-08-16T17:48:04.579Z,10.80
2018-08-16T17:50:31.839Z,9.80
2018-08-16T17:52:59.116Z,10.00
2018-08-16T17:55:26.403Z,12.90
2018-08-16T17:57:53.724Z,11.87
2018-08-16T18:00:21.058Z,12.57
2018-08-16T18:02:48.422Z,9.97
2018-08-16T18:05:15.696Z,9.90
2018-08-16T18:07:43.080Z,10.37
2018-08-16T18:10:10.415Z,10.10
2018-08-16T18:12:37.743Z,9.83
2018-08-16T18:15:06.980Z,10.90
2018-08-16T18:17:34.296Z,11.10
2018-08-16T18:20:01.669Z,11.23
2018-08-16T18:22:29.698Z,10.47
2018-08-16T18:24:56.951Z,11.53
2018-08-16T18:27:24.212Z,13.00
2018-08-16T18:29:53.106Z,10.90
2018-08-16T18:32:24.113Z,11.47
2018-08-16T18:34:51.384Z,11.10
2018-08-16T18:37:18.680Z,10.57
2018-08-16T18:39:46.146Z,10.23
2018-08-16T18:42:13.440Z,12.80
2018-08-16T18:44:42.987Z,10.30
2018-08-16T18:47:10.288Z,10.57
2018-08-16T18:49:37.608Z,11.03
2018-08-16T18:52:05.052Z,11.83
2018-08-16T18:54:32.499Z,9.97
2018-08-16T18:56:59.963Z,12.40
2018-08-16T18:59:31.370Z,12.90
2018-08-16T19:01:59.343Z,10.80
2018-08-16T19:04:26.615Z,10.53
2018-08-16T19:06:53.898Z,10.10
2018-08-16T19:09:21.157Z,12.80
2018-08-16T19:11:48.443Z,10.33
2018-08-16T19:14:17.440Z,11.43
2018-08-16T19:16:44.780Z,10.60
2018-08-16T19:19:12.064Z,11.03
2018-08-16T19:21:39.327Z,10.67
2018-08-16T19:24:06.642Z,10.67
2018-08-16T19:26:34.045Z,10.33
2018-08-16T19:29:01.348Z,9.97
2018-08-16T19:31:28.611Z,12.00
2018-08-16T19:33:55.890Z,10.57
2018-08-16T19:36:23.177Z,10.97
2018-08-16T19:38:50.453Z,9.70
2018-08-16T19:41:17.751Z,9.80
2018-08-16T19:43:45.011Z,9.37
2018-08-16T19:46:12.296Z,9.97
2018-08-16T19:48:39.608Z,10.60
2018-08-16T19:51:07.330Z,12.20
2018-08-16T19:53:34.591Z,10.43
2018-08-16T19:56:01.965Z,10.20
2018-08-16T19:58:29.260Z,10.53
2018-08-16T20:00:56.602Z,10.13
2018-08-16T20:03:23.918Z,10.87
2018-08-16T20:05:51.204Z,10.03
2018-08-16T20:08:18.555Z,10.60
2018-08-16T20:10:45.840Z,10.27
2018-08-16T20:13:13.324Z,9.73
2018-08-16T20:15:40.533Z,10.37
2018-08-16T20:18:08.209Z,10.87
2018-08-16T20:20:35.555Z,10.60
2018-08-16T20:23:03.977Z,10.33
2018-08-16T20:25:31.287Z,9.60
2018-08-16T20:27:58.560Z,11.47
2018-08-16T20:30:25.840Z,11.27
2018-08-16T20:32:53.107Z,11.30
2018-08-16T20:35:20.364Z,11.13
2018-08-16T20:37:47.647Z,11.23
2018-08-16T20:40:14.967Z,11.40
2018-08-16T20:42:42.231Z,12.53
2018-08-16T20:45:09.580Z,10.93
2018-08-16T20:47:36.935Z,13.63
2018-08-16T20:50:05.054Z,13.97
2018-08-16T20:52:32.408Z,11.70
2018-08-16T20:54:59.691Z,11.20
2018-08-16T20:57:27.020Z,12.17
2018-08-16T20:59:54.231Z,12.00
2018-08-16T21:02:21.495Z,11.20
2018-08-16T21:04:48.761Z,12.20
2018-08-16T21:07:16.015Z,12.03
2018-08-16T21:09:43.275Z,11.87
2018-08-16T21:12:10.548Z,11.90
2018-08-16T21:14:37.888Z,11.20
2018-08-16T21:17:05.250Z,16.83
2018-08-16T21:19:32.595Z,12.10
2018-08-16T21:21:59.862Z,11.73
2018-08-16T21:24:27.167Z,11.50
2018-08-16T21:26:54.439Z,12.70
2018-08-16T21:29:21.719Z,11.10
2018-08-16T21:31:48.995Z,12.03
2018-08-16T21:34:16.402Z,12.23
2018-08-16T21:36:44.142Z,11.70
2018-08-16T21:39:11.956Z,10.77
2018-08-16T21:41:39.373Z,11.83
2018-08-16T21:44:06.819Z,12.67
2018-08-16T21:46:34.144Z,11.57
2018-08-16T21:49:01.505Z,12.30
2018-08-16T21:51:28.784Z,12.67
2018-08-16T21:53:56.088Z,12.20
2018-08-16T21:56:23.371Z,12.60
2018-08-16T21:58:50.816Z,10.97
2018-08-16T22:01:18.421Z,13.33
2018-08-16T22:03:45.827Z,14.03
2018-08-16T22:06:24.859Z,15.13
2018-08-16T22:08:52.941Z,11.73
2018-08-16T22:11:20.239Z,12.37
2018-08-16T22:13:47.748Z,12.40
2018-08-16T22:16:15.246Z,13.23
2018-08-16T22:18:42.747Z,12.53
2018-08-16T22:21:10.429Z,12.80
2018-08-16T22:23:37.969Z,13.87
2018-08-16T22:26:05.576Z,12.83
2018-08-16T22:28:33.128Z,13.00
2018-08-16T22:31:00.818Z,14.13
2018-08-16T22:33:28.657Z,13.40
2018-08-16T22:35:56.255Z,12.47
2018-08-16T22:38:23.864Z,12.90
2018-08-16T22:40:51.357Z,13.70
2018-08-16T22:43:18.863Z,13.63
2018-08-16T22:45:46.344Z,16.83
2018-08-16T22:48:13.834Z,16.97
2018-08-16T22:50:41.356Z,14.37
2018-08-16T22:53:08.819Z,14.33
2018-08-16T22:55:36.316Z,15.87
2018-08-16T22:58:04.200Z,15.03
2018-08-16T23:00:32.209Z,15.90
2018-08-16T23:03:00.271Z,15.13
2018-08-16T23:05:27.823Z,14.97
2018-08-16T23:07:55.292Z,14.33
2018-08-16T23:10:22.799Z,13.33
2018-08-16T23:12:50.342Z,13.63
2018-08-16T23:15:17.985Z,14.23
2018-08-16T23:17:45.483Z,15.53
2018-08-16T23:20:13.025Z,14.17
2018-08-16T23:22:40.680Z,15.00
2018-08-16T23:25:08.484Z,14.53
2018-08-16T23:27:35.996Z,13.73
2018-08-16T23:30:08.779Z,13.77
2018-08-16T23:32:36.299Z,14.53
2018-08-16T23:35:04.075Z,13.50
2018-08-16T23:37:31.677Z,15.10
2018-08-16T23:39:59.175Z,13.87
2018-08-16T23:42:26.652Z,13.87
2018-08-16T23:44:54.171Z,15.27
2018-08-16T23:47:23.199Z,15.20
2018-08-16T23:49:50.743Z,15.57
2018-08-16T23:52:18.363Z,13.70
2018-08-16T23:54:45.904Z,16.13
2018-08-16T23:57:13.400Z,13.63
2018-08-16T23:59:40.864Z,15.27
